Time;durP1;ratioP1;P1;durP2;ratioP2;P2;SDS_P1;SDS_P2;PMS_P1;PMS_P2;Temp;Humidity;BMP_temperature;BMP_pressure;BME280_temperature;BME280_humidity;BME280_pressure;Samples;Min_cycle;Max_cycle;Signal;HPM_P1;HPM_P2
2021/11/08 00:00:22;;;;;;;33.83;13.40;;;8.10;98.10;;;;;;4902476;29;20061;-82
2021/11/08 00:02:49;;;;;;;28.77;13.03;;;8.00;98.20;;;;;;4900062;29;20033;-80
2021/11/08 00:05:15;;;;;;;33.80;11.77;;;8.00;98.30;;;;;;4900148;29;20099;-81
2021/11/08 00:07:42;;;;;;;26.67;12.07;;;8.00;98.30;;;;;;4891972;29;20096;-80
2021/11/08 00:10:08;;;;;;;32.70;14.03;;;8.00;98.40;;;;;;4899216;29;20037;-82
2021/11/08 00:12:35;;;;;;;30.97;11.97;;;8.00;98.50;;;;;;4883881;29;20130;-81
2021/11/08 00:15:02;;;;;;;28.03;11.43;;;8.00;98.50;;;;;;4900141;29;20105;-82
2021/11/08 00:20:22;;;;;;;33.30;12.30;;;8.00;98.60;;;;;;4900609;29;20045;-82
2021/11/08 00:22:48;;;;;;;28.23;9.83;;;8.10;98.80;;;;;;4900031;29;20036;-81
2021/11/08 00:25:14;;;;;;;29.00;10.57;;;8.20;98.80;;;;;;4900240;29;20557;-81
2021/11/08 00:27:41;;;;;;;29.93;10.70;;;8.20;98.80;;;;;;4885149;29;20040;-80
2021/11/08 00:30:07;;;;;;;29.23;10.23;;;8.30;98.80;;;;;;4901270;29;20044;-81
2021/11/08 00:32:35;;;;;;;33.23;12.80;;;8.30;98.80;;;;;;4900942;29;20041;-81
2021/11/08 00:35:01;;;;;;;29.53;9.83;;;8.40;98.90;;;;;;4901194;29;20044;-81
2021/11/08 00:37:26;;;;;;;32.40;10.97;;;8.50;98.70;;;;;;4916576;29;20037;-82
2021/11/08 00:39:52;;;;;;;28.50;9.73;;;8.50;98.60;;;;;;4900755;29;20085;-81
2021/11/08 00:42:18;;;;;;;31.67;11.70;;;8.50;98.50;;;;;;4900623;29;20032;-80
2021/11/08 00:44:43;;;;;;;29.53;11.57;;;8.50;98.50;;;;;;4900081;29;20045;-81
2021/11/08 00:47:09;;;;;;;30.20;10.37;;;8.50;98.50;;;;;;4883613;29;20036;-80
2021/11/08 00:49:37;;;;;;;26.17;8.77;;;8.50;98.50;;;;;;4899650;29;20047;-80
2021/11/08 00:52:07;;;;;;;27.47;8.90;;;8.50;98.50;;;;;;4899547;29;20041;-80
2021/11/08 00:54:32;;;;;;;25.10;8.20;;;8.50;98.50;;;;;;4899721;29;20100;-81
2021/11/08 00:57:00;;;;;;;27.93;8.60;;;8.50;98.50;;;;;;4916742;29;20092;-81
2021/11/08 00:59:26;;;;;;;28.70;9.73;;;8.50;98.50;;;;;;4900282;29;20063;-82
2021/11/08 01:01:55;;;;;;;28.07;9.63;;;8.50;98.60;;;;;;4899492;29;20045;-81
2021/11/08 01:04:22;;;;;;;25.00;8.17;;;8.50;98.60;;;;;;4914199;29;20033;-81
2021/11/08 01:06:49;;;;;;;31.90;9.30;;;8.50;98.60;;;;;;4930651;29;20041;-83
2021/11/08 01:09:16;;;;;;;28.33;7.70;;;8.60;98.60;;;;;;4914936;29;20043;-79
2021/11/08 01:11:43;;;;;;;25.70;7.50;;;8.50;98.50;;;;;;4899222;29;20113;-81
2021/11/08 01:14:09;;;;;;;25.43;8.57;;;8.40;98.50;;;;;;4915788;29;20037;-83
2021/11/08 01:16:36;;;;;;;26.57;7.50;;;8.40;98.40;;;;;;4916384;29;20048;-81
2021/11/08 01:19:05;;;;;;;31.13;7.53;;;8.30;98.40;;;;;;4899904;29;20079;-81
2021/11/08 01:21:31;;;;;;;28.23;8.93;;;8.30;98.40;;;;;;4914393;29;20094;-80
2021/11/08 01:24:04;;;;;;;28.00;7.73;;;8.20;98.50;;;;;;4914664;29;20044;-80
2021/11/08 01:26:30;;;;;;;28.80;7.97;;;8.20;98.60;;;;;;4914817;29;20043;-81
2021/11/08 01:28:56;;;;;;;26.00;8.13;;;8.10;98.70;;;;;;4934819;29;20043;-81
2021/11/08 01:31:23;;;;;;;25.23;7.73;;;8.10;98.80;;;;;;4905172;29;20040;-81
2021/11/08 01:33:51;;;;;;;26.77;7.60;;;8.10;98.80;;;;;;4903490;29;20041;-80
2021/11/08 01:36:24;;;;;;;29.77;7.63;;;8.10;98.80;;;;;;4933624;29;20474;-81
2021/11/08 01:38:54;;;;;;;27.80;8.57;;;8.10;98.80;;;;;;4904045;29;20037;-82
2021/11/08 01:41:23;;;;;;;27.90;8.30;;;8.10;98.90;;;;;;4917151;29;20508;-81
2021/11/08 01:43:50;;;;;;;27.53;8.00;;;8.20;99.00;;;;;;4901584;29;20039;-81
2021/11/08 01:46:18;;;;;;;28.60;8.53;;;8.20;99.00;;;;;;4901270;29;20047;-80
2021/11/08 01:48:46;;;;;;;30.57;8.37;;;8.30;99.20;;;;;;4901625;29;20092;-79
2021/11/08 01:51:12;;;;;;;32.03;7.40;;;8.30;99.10;;;;;;4917164;29;20401;-81
2021/11/08 01:53:40;;;;;;;27.60;8.23;;;8.40;99.00;;;;;;4917745;29;20041;-80
2021/11/08 01:56:06;;;;;;;35.50;8.40;;;8.40;99.00;;;;;;4916997;29;20044;-81
2021/11/08 01:58:33;;;;;;;32.63;8.30;;;8.40;99.00;;;;;;4917253;29;20037;-80
2021/11/08 02:01:00;;;;;;;29.57;8.17;;;8.40;99.00;;;;;;4901066;29;20047;-80
2021/11/08 02:03:26;;;;;;;30.00;8.87;;;8.40;98.90;;;;;;4932556;29;20044;-81
2021/11/08 02:05:53;;;;;;;28.83;7.30;;;8.50;98.90;;;;;;4900733;29;20517;-81
2021/11/08 02:08:20;;;;;;;28.80;8.13;;;8.50;98.80;;;;;;4915868;29;20056;-80
2021/11/08 02:10:46;;;;;;;31.93;7.70;;;8.50;98.70;;;;;;4901355;29;20474;-81
2021/11/08 02:13:14;;;;;;;27.20;7.93;;;8.50;98.70;;;;;;4903746;29;20140;-81
2021/11/08 02:15:40;;;;;;;33.93;7.97;;;8.50;98.90;;;;;;4902941;29;20041;-83
2021/11/08 02:18:08;;;;;;;30.33;7.80;;;8.50;98.80;;;;;;4933988;29;20127;-80
2021/11/08 02:20:35;;;;;;;26.37;6.60;;;8.40;98.70;;;;;;4903751;29;20236;-81
2021/11/08 02:23:05;;;;;;;31.00;7.90;;;8.30;98.60;;;;;;4902604;29;20032;-82
2021/11/08 02:25:34;;;;;;;30.00;7.73;;;8.20;98.60;;;;;;4934747;29;20076;-82
2021/11/08 02:28:01;;;;;;;29.40;7.47;;;8.20;98.70;;;;;;4918467;29;20060;-81
2021/11/08 02:30:30;;;;;;;23.10;7.10;;;8.20;98.70;;;;;;4903192;29;20079;-80
2021/11/08 02:32:57;;;;;;;26.43;7.00;;;8.10;98.70;;;;;;4901754;29;20063;-81
2021/11/08 02:35:24;;;;;;;30.03;7.87;;;8.10;98.70;;;;;;4917198;29;20064;-80
2021/11/08 02:37:51;;;;;;;26.83;7.17;;;8.00;98.80;;;;;;4902065;29;20470;-82
2021/11/08 02:40:20;;;;;;;29.23;7.47;;;8.00;98.70;;;;;;4918167;29;20044;-83
2021/11/08 02:42:49;;;;;;;26.87;6.93;;;7.90;98.80;;;;;;4918156;29;20036;-81
2021/11/08 02:45:16;;;;;;;33.93;7.90;;;7.90;98.90;;;;;;4901813;29;20041;-82
2021/11/08 02:47:44;;;;;;;22.60;7.13;;;7.80;99.00;;;;;;4932589;29;20044;-78
2021/11/08 02:50:11;;;;;;;27.20;7.50;;;7.90;99.00;;;;;;4932487;29;20037;-80
2021/11/08 02:52:37;;;;;;;30.70;7.23;;;7.90;99.10;;;;;;4915566;29;20131;-80
2021/11/08 02:55:04;;;;;;;31.03;7.97;;;7.90;99.10;;;;;;4903077;29;20060;-80
2021/11/08 02:57:29;;;;;;;22.90;5.97;;;8.00;99.30;;;;;;4902040;29;20045;-80
2021/11/08 02:59:59;;;;;;;30.63;8.23;;;8.00;99.30;;;;;;4918238;29;20385;-80
2021/11/08 03:02:24;;;;;;;28.67;7.73;;;8.10;99.40;;;;;;4916769;29;20047;-81
2021/11/08 03:04:53;;;;;;;28.33;8.03;;;8.20;99.60;;;;;;4917749;29;20377;-80
2021/11/08 03:07:20;;;;;;;31.80;7.63;;;8.30;99.50;;;;;;4902693;29;20075;-82
2021/11/08 03:09:56;;;;;;;31.47;7.10;;;8.30;99.40;;;;;;4932792;29;20037;-80
2021/11/08 03:12:26;;;;;;;26.73;6.80;;;8.40;99.30;;;;;;4902620;29;20036;-84
2021/11/08 03:17:34;;;;;;;28.23;7.53;;;8.40;99.20;;;;;;4903834;29;20446;-81
2021/11/08 03:20:00;;;;;;;26.02;7.13;;;8.50;99.20;;;;;;4916564;29;20044;-78
2021/11/08 03:22:31;;;;;;;33.10;7.27;;;8.50;99.10;;;;;;4901801;29;20139;-81
2021/11/08 03:25:07;;;;;;;29.40;6.97;;;8.40;99.00;;;;;;4903094;29;20036;-80
2021/11/08 03:30:15;;;;;;;21.67;6.30;;;8.40;99.00;;;;;;4903224;29;20033;-81
2021/11/08 03:32:44;;;;;;;28.97;6.97;;;8.40;99.00;;;;;;4932514;29;20037;-80
2021/11/08 03:35:12;;;;;;;25.50;6.30;;;8.50;99.00;;;;;;4900632;29;20051;-81
2021/11/08 03:37:41;;;;;;;30.63;7.50;;;8.50;99.00;;;;;;4900368;29;20029;-80
2021/11/08 03:40:18;;;;;;;30.30;7.77;;;8.50;98.90;;;;;;4901066;29;20036;-80
2021/11/08 03:42:45;;;;;;;26.67;6.97;;;8.50;99.00;;;;;;4900917;29;20036;-80
2021/11/08 03:45:11;;;;;;;25.37;7.80;;;8.50;98.90;;;;;;4935224;29;20060;-80
2021/11/08 03:47:38;;;;;;;27.63;6.63;;;8.50;98.90;;;;;;4919433;29;20045;-82
2021/11/08 03:50:07;;;;;;;26.93;6.40;;;8.50;98.80;;;;;;4904397;29;20029;-81
2021/11/08 03:52:34;;;;;;;24.50;6.57;;;8.40;98.70;;;;;;4911200;29;20059;-81
2021/11/08 03:55:00;;;;;;;22.57;6.80;;;8.30;98.80;;;;;;4935135;29;20044;-81
2021/11/08 03:57:27;;;;;;;31.83;7.63;;;8.20;98.90;;;;;;4919633;29;20088;-81
2021/11/08 03:59:54;;;;;;;23.30;7.17;;;8.20;99.00;;;;;;4902810;29;20489;-81
2021/11/08 04:02:21;;;;;;;25.57;6.77;;;8.10;99.00;;;;;;4918857;29;20037;-81
2021/11/08 04:04:47;;;;;;;23.33;6.60;;;8.20;99.10;;;;;;4903956;29;20029;-80
2021/11/08 04:07:13;;;;;;;26.47;5.87;;;8.10;99.10;;;;;;4903044;29;20101;-81
2021/11/08 04:09:40;;;;;;;30.67;6.77;;;8.10;99.10;;;;;;4903233;29;20039;-80
2021/11/08 04:12:07;;;;;;;27.23;6.73;;;8.10;99.20;;;;;;4919275;29;20056;-80
2021/11/08 04:14:34;;;;;;;25.13;6.67;;;8.10;99.20;;;;;;4903684;29;20127;-80
2021/11/08 04:16:59;;;;;;;28.10;6.63;;;8.00;99.20;;;;;;4902056;29;20044;-82
2021/11/08 04:19:29;;;;;;;28.47;7.00;;;8.00;99.20;;;;;;4917929;29;20041;-81
2021/11/08 04:21:57;;;;;;;25.13;7.00;;;8.00;99.20;;;;;;4901341;29;20048;-81
2021/11/08 04:24:23;;;;;;;33.07;7.00;;;8.00;99.30;;;;;;4918396;29;20059;-81
2021/11/08 04:26:49;;;;;;;28.13;7.10;;;8.10;99.40;;;;;;4918424;29;20460;-80
2021/11/08 04:29:15;;;;;;;24.63;7.20;;;8.10;99.40;;;;;;4901586;29;20068;-81
2021/11/08 04:31:41;;;;;;;30.53;6.83;;;8.20;99.50;;;;;;4917082;29;20172;-80
2021/11/08 04:37:10;;;;;;;25.83;7.20;;;8.30;99.30;;;;;;4901347;29;20068;-81
2021/11/08 04:50:39;;;;;;;34.07;7.07;;;8.50;99.10;;;;;;4866702;29;20034;-80
2021/11/08 04:53:21;;;;;;;33.97;7.90;;;8.50;99.00;;;;;;4911784;29;20048;-81
2021/11/08 05:20:55;;;;;;;29.80;7.43;;;8.50;98.90;;;;;;4928157;29;20096;-80
2021/11/08 05:28:44;;;;;;;36.07;8.33;;;8.60;98.50;;;;;;4918010;29;20044;-79
2021/11/08 05:31:10;;;;;;;31.90;7.97;;;8.60;98.50;;;;;;4901516;29;20040;-80
2021/11/08 05:33:36;;;;;;;34.07;8.53;;;8.60;98.60;;;;;;4900806;29;20104;-82
2021/11/08 05:36:02;;;;;;;27.50;8.73;;;8.60;98.50;;;;;;4916283;29;20143;-79
2021/11/08 05:38:28;;;;;;;24.17;7.37;;;8.70;98.50;;;;;;4900824;29;20123;-81
2021/11/08 05:40:54;;;;;;;31.20;7.90;;;8.70;98.50;;;;;;4901048;29;20068;-80
2021/11/08 05:43:20;;;;;;;31.13;7.60;;;8.70;98.50;;;;;;4900855;29;20096;-80
2021/11/08 05:45:45;;;;;;;36.70;9.63;;;8.70;98.40;;;;;;4932025;29;20041;-80
2021/11/08 05:48:11;;;;;;;27.60;7.80;;;8.70;98.40;;;;;;4902347;29;20044;-81
2021/11/08 05:50:39;;;;;;;37.57;9.23;;;8.70;98.30;;;;;;4918590;29;20036;-80
2021/11/08 05:53:08;;;;;;;32.57;8.63;;;8.70;98.40;;;;;;4904773;29;20040;-80
2021/11/08 05:56:04;;;;;;;34.40;8.57;;;8.70;98.30;;;;;;4918251;29;20040;-80
2021/11/08 05:58:55;;;;;;;29.63;9.20;;;8.70;98.30;;;;;;4913950;29;20052;-82
2021/11/08 06:50:06;;;;;;;30.40;7.97;;;8.80;98.10;;;;;;4900903;29;20050;-80
2021/11/08 06:52:33;;;;;;;34.03;8.73;;;8.80;98.20;;;;;;4914965;29;20044;-79
2021/11/08 06:55:03;;;;;;;33.33;9.80;;;8.90;98.10;;;;;;4898984;29;20033;-80
2021/11/08 06:57:34;;;;;;;27.20;6.90;;;8.90;98.10;;;;;;4898821;29;20037;-79
2021/11/08 07:00:00;;;;;;;24.40;7.10;;;8.90;98.20;;;;;;4914536;29;20071;-80
2021/11/08 07:02:26;;;;;;;23.97;7.07;;;9.10;98.30;;;;;;4930434;29;20397;-81
2021/11/08 07:04:55;;;;;;;29.20;7.27;;;9.10;98.20;;;;;;4899288;29;20047;-80
2021/11/08 07:07:21;;;;;;;31.67;7.90;;;9.10;98.10;;;;;;4930387;29;20041;-81
2021/11/08 07:09:47;;;;;;;24.97;6.70;;;9.10;98.00;;;;;;4900055;29;20477;-80
2021/11/08 07:12:14;;;;;;;22.60;6.43;;;9.00;98.00;;;;;;4913966;29;20071;-80
2021/11/08 07:14:40;;;;;;;26.80;6.83;;;9.10;98.00;;;;;;4914138;29;20037;-80
2021/11/08 07:17:07;;;;;;;26.93;6.53;;;9.10;98.00;;;;;;4898226;29;20512;-80
2021/11/08 07:19:33;;;;;;;28.10;7.67;;;9.10;97.90;;;;;;4898664;29;20040;-80
2021/11/08 07:21:59;;;;;;;27.17;7.20;;;9.20;97.90;;;;;;4898390;29;20092;-80
2021/11/08 07:24:25;;;;;;;28.43;7.00;;;9.20;97.80;;;;;;4899852;29;20116;-80
2021/11/08 07:26:51;;;;;;;26.20;6.70;;;9.20;97.80;;;;;;4915088;29;20053;-80
2021/11/08 07:29:17;;;;;;;28.37;7.10;;;9.20;97.80;;;;;;4931109;29;20517;-80
2021/11/08 07:31:44;;;;;;;25.07;7.10;;;9.20;97.70;;;;;;4915164;29;20044;-79
2021/11/08 07:34:10;;;;;;;28.77;7.57;;;9.30;97.70;;;;;;4898836;29;20091;-80
2021/11/08 07:36:36;;;;;;;20.93;6.23;;;9.30;97.60;;;;;;4899563;29;20087;-82
2021/11/08 07:39:04;;;;;;;24.47;6.77;;;9.30;97.60;;;;;;4898071;29;20040;-79
2021/11/08 07:41:30;;;;;;;35.87;7.10;;;9.30;97.50;;;;;;4898045;29;20045;-80
2021/11/08 07:43:55;;;;;;;27.00;6.57;;;9.40;97.50;;;;;;4897830;29;20051;-80
2021/11/08 07:46:21;;;;;;;24.30;6.40;;;9.40;97.40;;;;;;4901288;29;20052;-79
2021/11/08 07:48:48;;;;;;;26.13;6.10;;;9.40;97.40;;;;;;4898311;29;20037;-80
2021/11/08 07:51:15;;;;;;;31.23;6.90;;;9.40;97.30;;;;;;4897942;29;20433;-80
2021/11/08 07:53:42;;;;;;;24.97;6.60;;;9.40;97.20;;;;;;4897835;29;20064;-79
2021/11/08 07:56:08;;;;;;;24.30;6.13;;;9.40;97.20;;;;;;4897957;29;20033;-79
2021/11/08 07:58:34;;;;;;;22.27;6.57;;;9.40;97.40;;;;;;4898121;29;20032;-79
2021/11/08 08:01:00;;;;;;;28.40;6.97;;;9.50;97.10;;;;;;4898917;29;20104;-78
2021/11/08 08:03:26;;;;;;;28.47;7.00;;;9.40;96.90;;;;;;4913677;29;20485;-79
2021/11/08 08:05:54;;;;;;;28.23;7.47;;;9.40;96.80;;;;;;4913400;29;20108;-79
2021/11/08 08:08:20;;;;;;;29.03;8.13;;;9.40;96.80;;;;;;4898531;29;20505;-79
2021/11/08 08:10:49;;;;;;;29.77;7.80;;;9.40;96.90;;;;;;4897577;29;20044;-78
2021/11/08 08:13:19;;;;;;;34.67;8.80;;;9.40;96.70;;;;;;4899261;29;20028;-79
2021/11/08 08:15:45;;;;;;;29.67;7.57;;;9.50;96.70;;;;;;4912701;29;20036;-81
2021/11/08 08:18:11;;;;;;;33.40;10.03;;;9.50;96.70;;;;;;4897200;29;20187;-78
2021/11/08 08:20:37;;;;;;;27.93;8.53;;;9.60;96.80;;;;;;4899102;29;20044;-81
2021/11/08 08:23:03;;;;;;;31.47;9.93;;;9.70;96.60;;;;;;4898271;29;20040;-79
2021/11/08 08:25:29;;;;;;;34.37;10.77;;;9.70;96.60;;;;;;4900050;29;20474;-80
2021/11/08 08:27:58;;;;;;;34.93;10.30;;;9.80;96.60;;;;;;4898683;29;20088;-80
2021/11/08 08:30:25;;;;;;;32.30;11.07;;;9.80;96.50;;;;;;4884507;29;20078;-79
2021/11/08 08:32:51;;;;;;;28.57;11.67;;;9.80;96.30;;;;;;4882726;29;20037;-80
2021/11/08 08:35:17;;;;;;;30.00;11.80;;;9.90;96.30;;;;;;4898679;29;20040;-79
2021/11/08 08:37:43;;;;;;;29.37;9.87;;;10.00;96.30;;;;;;4899090;29;20041;-79
2021/11/08 08:40:10;;;;;;;27.37;11.37;;;10.00;96.10;;;;;;4913641;29;20493;-80
2021/11/08 08:42:36;;;;;;;34.00;13.53;;;10.00;96.00;;;;;;4883260;29;20446;-80
2021/11/08 08:45:06;;;;;;;32.60;13.20;;;10.10;96.00;;;;;;4882980;29;20063;-83
2021/11/08 08:47:31;;;;;;;33.57;12.93;;;10.20;96.10;;;;;;4899296;29;20055;-80
2021/11/08 08:49:57;;;;;;;36.17;14.53;;;10.20;96.00;;;;;;4898570;29;20481;-77
2021/11/08 08:52:23;;;;;;;29.77;12.67;;;10.30;95.90;;;;;;4899041;29;20111;-80
2021/11/08 08:54:52;;;;;;;32.73;12.07;;;10.40;95.80;;;;;;4883741;29;20044;-78
2021/11/08 08:57:18;;;;;;;36.10;13.13;;;10.50;95.60;;;;;;4899480;29;20545;-78
2021/11/08 08:59:43;;;;;;;32.17;12.10;;;10.60;95.50;;;;;;4883368;29;20100;-79
2021/11/08 09:02:11;;;;;;;34.93;11.00;;;10.60;95.10;;;;;;4899221;29;20162;-78
2021/11/08 09:04:37;;;;;;;34.97;13.90;;;10.70;95.00;;;;;;4897603;29;20032;-79
2021/11/08 09:07:05;;;;;;;36.03;11.93;;;10.80;95.10;;;;;;4897609;29;20155;-81
2021/11/08 09:09:31;;;;;;;30.03;12.10;;;10.80;94.80;;;;;;4898733;29;20044;-79
2021/11/08 09:11:56;;;;;;;32.60;13.23;;;10.90;94.40;;;;;;4897657;29;20055;-79
2021/11/08 09:14:24;;;;;;;31.73;12.37;;;10.90;94.40;;;;;;4898193;29;20120;-79
2021/11/08 09:16:50;;;;;;;30.40;13.90;;;11.10;94.50;;;;;;4897879;29;20489;-80
2021/11/08 09:19:16;;;;;;;29.87;12.87;;;11.30;94.40;;;;;;4898922;29;20104;-78
2021/11/08 09:21:41;;;;;;;31.50;12.03;;;11.60;94.10;;;;;;4882151;29;20048;-79
2021/11/08 09:24:07;;;;;;;27.63;10.43;;;11.80;93.40;;;;;;4897967;29;20075;-81
2021/11/08 09:26:35;;;;;;;31.67;11.57;;;12.10;92.90;;;;;;4897076;29;20108;-77
2021/11/08 09:29:01;;;;;;;27.30;10.27;;;12.40;92.20;;;;;;4897440;29;20049;-79
2021/11/08 09:31:28;;;;;;;26.50;9.13;;;12.60;91.50;;;;;;4897847;29;20132;-80
2021/11/08 09:34:07;;;;;;;24.60;9.57;;;12.80;90.90;;;;;;4898512;29;20045;-80
2021/11/08 09:36:34;;;;;;;31.50;8.48;;;13.10;90.50;;;;;;4898908;29;20163;-80
2021/11/08 09:39:03;;;;;;;25.88;9.73;;;13.30;89.60;;;;;;4897010;29;20045;-80
2021/11/08 09:41:34;;;;;;;26.50;8.48;;;13.50;89.10;;;;;;4915331;29;20041;-80
2021/11/08 09:44:03;;;;;;;25.25;7.05;;;13.90;88.00;;;;;;4900497;29;20037;-81
2021/11/08 09:46:30;;;;;;;25.17;7.10;;;14.20;84.30;;;;;;4933168;29;20037;-80
2021/11/08 09:48:59;;;;;;;23.60;7.13;;;14.30;83.40;;;;;;4903884;29;20037;-81
2021/11/08 09:51:26;;;;;;;28.65;7.05;;;14.20;81.10;;;;;;4902817;29;20033;-80
2021/11/08 09:53:52;;;;;;;28.40;10.38;;;14.20;82.50;;;;;;4901422;29;20037;-79
2021/11/08 09:56:18;;;;;;;30.02;9.65;;;14.10;82.70;;;;;;4901957;29;20100;-80
2021/11/08 09:58:43;;;;;;;26.48;9.55;;;14.00;82.90;;;;;;4916655;29;20389;-79
2021/11/08 10:01:12;;;;;;;26.50;10.20;;;13.90;83.00;;;;;;4932875;29;20040;-80
2021/11/08 10:03:38;;;;;;;30.35;8.90;;;13.80;83.50;;;;;;4899666;29;20033;-79
2021/11/08 10:06:05;;;;;;;26.17;7.90;;;13.70;83.50;;;;;;4899830;29;20501;-80
2021/11/08 10:08:37;;;;;;;23.77;8.98;;;13.70;83.50;;;;;;4930989;29;20057;-81
2021/11/08 10:11:07;;;;;;;27.23;8.15;;;13.60;84.30;;;;;;4900543;29;20033;-80
2021/11/08 10:13:34;;;;;;;23.33;7.25;;;13.60;84.80;;;;;;4900247;29;20033;-80
2021/11/08 10:16:25;;;;;;;23.70;9.07;;;13.60;84.40;;;;;;4901450;29;20044;-81
2021/11/08 10:18:55;;;;;;;27.33;8.32;;;13.50;84.90;;;;;;4900258;29;20108;-79
2021/11/08 10:21:39;;;;;;;22.17;7.85;;;13.60;85.00;;;;;;4900618;29;20037;-82
2021/11/08 10:24:12;;;;;;;24.98;8.02;;;13.60;84.60;;;;;;4900499;29;20162;-80
2021/11/08 10:26:39;;;;;;;27.80;8.65;;;13.50;84.80;;;;;;4899983;29;20132;-80
2021/11/08 10:29:10;;;;;;;23.67;8.25;;;13.50;84.80;;;;;;4900651;29;20037;-80
2021/11/08 10:31:43;;;;;;;24.88;9.60;;;13.50;84.90;;;;;;4899312;29;20039;-81
2021/11/08 10:34:09;;;;;;;;;;;13.40;84.80;;;;;;4900000;29;20036;-80
2021/11/08 10:36:35;;;;;;;31.42;7.88;;;13.40;84.30;;;;;;4915145;29;19915;-81
2021/11/08 10:39:04;;;;;;;23.10;8.00;;;13.20;84.80;;;;;;4899534;29;20429;-79
2021/11/08 10:41:37;;;;;;;22.90;6.82;;;13.20;85.30;;;;;;4899319;29;20085;-81
2021/11/08 10:44:06;;;;;;;23.90;8.02;;;13.20;85.00;;;;;;4900303;29;20544;-81
2021/11/08 10:46:38;;;;;;;29.15;7.10;;;13.20;85.80;;;;;;4899029;29;20131;-80
2021/11/08 10:49:06;;;;;;;25.20;7.00;;;13.20;85.20;;;;;;4930842;29;20035;-80
2021/11/08 10:51:33;;;;;;;23.38;8.00;;;13.10;84.00;;;;;;4899358;29;20100;-81
2021/11/08 10:54:02;;;;;;;21.35;8.23;;;13.00;85.00;;;;;;4900652;29;20489;-79
2021/11/08 10:56:45;;;;;;;22.63;7.80;;;13.00;85.80;;;;;;4900367;29;20096;-80
2021/11/08 10:59:27;;;;;;;21.83;7.35;;;12.90;86.10;;;;;;4900152;29;20044;-81
2021/11/08 11:01:55;;;;;;;22.83;7.13;;;12.90;86.10;;;;;;4900252;29;20101;-79
2021/11/08 11:04:30;;;;;;;23.33;7.05;;;13.00;86.40;;;;;;4899423;29;20488;-82
2021/11/08 11:06:56;;;;;;;18.00;7.57;;;13.00;86.90;;;;;;4898312;29;20044;-81
2021/11/08 11:09:29;;;;;;;22.77;8.15;;;13.00;86.70;;;;;;4930312;29;20053;-80
2021/11/08 11:12:11;;;;;;;27.90;8.73;;;13.10;87.50;;;;;;4898760;29;20040;-80
2021/11/08 11:14:50;;;;;;;22.98;6.82;;;13.20;87.40;;;;;;4899722;29;20045;-83
2021/11/08 11:17:23;;;;;;;27.60;8.05;;;13.30;86.50;;;;;;4899291;29;20037;-82
2021/11/08 11:19:50;;;;;;;20.90;7.88;;;13.30;86.40;;;;;;4899927;29;20044;-81
2021/11/08 11:22:22;;;;;;;23.58;8.15;;;13.30;86.60;;;;;;4899054;29;20033;-81
2021/11/08 11:24:54;;;;;;;20.50;7.22;;;13.40;86.40;;;;;;4898144;29;20033;-81
2021/11/08 11:27:28;;;;;;;25.70;8.57;;;13.40;86.20;;;;;;4899944;29;20123;-82
2021/11/08 11:30:11;;;;;;;23.75;8.10;;;13.50;85.70;;;;;;4899874;29;20162;-79
2021/11/08 11:32:37;;;;;;;27.40;8.13;;;13.60;85.70;;;;;;4898561;29;20041;-82
2021/11/08 11:35:11;;;;;;;26.30;9.32;;;13.60;85.10;;;;;;4898546;29;20087;-81
2021/11/08 11:37:36;;;;;;;29.83;10.40;;;13.70;85.10;;;;;;4899336;29;20490;-80
2021/11/08 11:40:14;;;;;;;22.38;8.90;;;13.90;84.80;;;;;;4882570;29;20063;-82
2021/11/08 11:42:48;;;;;;;25.40;10.05;;;14.00;84.60;;;;;;4898414;29;20119;-80
2021/11/08 11:45:14;;;;;;;27.48;7.25;;;14.20;84.00;;;;;;4898176;29;20040;-82
2021/11/08 11:47:40;;;;;;;22.67;9.30;;;14.30;82.90;;;;;;4929499;29;20611;-80
2021/11/08 11:50:06;;;;;;;24.25;10.20;;;14.30;82.90;;;;;;4898080;29;20043;-82
2021/11/08 11:52:32;;;;;;;21.58;8.57;;;14.40;82.50;;;;;;4898114;29;20532;-80
2021/11/08 11:54:58;;;;;;;23.92;7.68;;;14.30;82.20;;;;;;4913685;29;20037;-81
2021/11/08 11:57:24;;;;;;;29.15;8.32;;;14.30;81.60;;;;;;4897921;29;20036;-81
2021/11/08 11:59:51;;;;;;;26.13;10.55;;;14.20;81.60;;;;;;4899884;29;20180;-79
2021/11/08 12:02:18;;;;;;;28.60;8.65;;;14.20;82.20;;;;;;4902491;29;20458;-82
2021/11/08 12:04:43;;;;;;;24.67;8.90;;;14.20;81.90;;;;;;4934552;29;20060;-80
2021/11/08 12:07:11;;;;;;;27.25;6.63;;;14.10;81.70;;;;;;4900685;29;20044;-80
2021/11/08 12:09:37;;;;;;;29.85;8.95;;;14.10;80.30;;;;;;4898425;29;20040;-81
2021/11/08 12:12:03;;;;;;;25.38;7.53;;;14.10;80.50;;;;;;4898462;29;20060;-80
2021/11/08 12:14:33;;;;;;;22.15;7.30;;;14.00;79.90;;;;;;4899042;29;20084;-81
2021/11/08 12:17:02;;;;;;;32.40;12.60;;;14.00;80.00;;;;;;4930165;29;20041;-81
2021/11/08 12:19:33;;;;;;;28.15;10.55;;;14.00;80.10;;;;;;4900004;29;20036;-79
2021/11/08 12:22:15;;;;;;;21.25;7.78;;;13.90;80.60;;;;;;4899044;29;20036;-80
2021/11/08 12:24:41;;;;;;;23.70;7.93;;;13.90;80.30;;;;;;4899496;29;20123;-80
2021/11/08 12:27:12;;;;;;;24.02;8.68;;;13.90;79.20;;;;;;4899329;29;20041;-80
2021/11/08 12:29:52;;;;;;;25.70;9.27;;;13.90;79.20;;;;;;4899999;29;20037;-82
2021/11/08 12:32:19;;;;;;;27.15;7.15;;;13.90;79.30;;;;;;4900164;29;20127;-80
2021/11/08 12:34:47;;;;;;;26.63;8.45;;;13.90;79.20;;;;;;4901398;29;20039;-81
2021/11/08 12:37:14;;;;;;;21.85;8.60;;;13.90;79.10;;;;;;4904433;29;20100;-81
2021/11/08 12:39:42;;;;;;;29.40;6.65;;;13.90;78.90;;;;;;4936093;29;20136;-79
2021/11/08 12:42:12;;;;;;;24.17;8.65;;;13.90;78.20;;;;;;4906786;29;20041;-80
2021/11/08 12:44:44;;;;;;;23.50;9.48;;;13.80;78.50;;;;;;4906497;29;20037;-80
2021/11/08 12:47:11;;;;;;;22.33;8.50;;;13.90;79.00;;;;;;4905443;29;20040;-78
2021/11/08 12:49:41;;;;;;;27.20;11.98;;;13.90;79.00;;;;;;4905098;29;20065;-80
2021/11/08 12:52:12;;;;;;;20.73;7.53;;;13.90;79.20;;;;;;4909654;29;20041;-82
2021/11/08 12:54:50;;;;;;;34.10;13.30;;;13.90;78.70;;;;;;4908880;29;20033;-80
2021/11/08 12:57:19;;;;;;;23.50;9.65;;;13.90;79.00;;;;;;4906795;29;20497;-80
2021/11/08 12:59:53;;;;;;;22.85;7.57;;;13.90;78.80;;;;;;4907737;29;20059;-80
2021/11/08 13:02:40;;;;;;;18.92;7.03;;;13.90;78.40;;;;;;4941652;29;20029;-80
2021/11/08 13:05:09;;;;;;;24.45;8.77;;;13.90;77.90;;;;;;4903909;29;20032;-80
2021/11/08 13:07:41;;;;;;;23.92;9.43;;;13.90;78.10;;;;;;4903304;29;20072;-79
2021/11/08 13:10:20;;;;;;;21.52;7.43;;;13.90;78.10;;;;;;4904011;29;20032;-80
2021/11/08 13:12:46;;;;;;;20.58;6.32;;;13.90;77.60;;;;;;4904084;29;20095;-80
2021/11/08 13:15:19;;;;;;;19.67;8.93;;;13.80;76.70;;;;;;4919380;29;20112;-80
2021/11/08 13:17:52;;;;;;;;;;;13.80;76.80;;;;;;4903733;29;20037;-79
2021/11/08 13:20:21;;;;;;;20.83;8.70;;;13.80;76.50;;;;;;4904964;29;20014;-80
2021/11/08 13:22:54;;;;;;;19.77;7.10;;;13.80;76.50;;;;;;4906396;29;20032;-79
2021/11/08 13:25:40;;;;;;;;;;;13.70;76.30;;;;;;4908144;29;20055;-79
2021/11/08 13:28:11;;;;;;;28.15;12.93;;;13.70;76.80;;;;;;4906434;29;20303;-80
2021/11/08 13:30:50;;;;;;;19.63;8.52;;;13.80;77.70;;;;;;4907360;29;20064;-81
2021/11/08 13:33:22;;;;;;;21.55;7.32;;;13.80;76.90;;;;;;4937838;29;20040;-80
2021/11/08 13:35:49;;;;;;;;;;;13.80;76.00;;;;;;4906789;29;20048;-79
2021/11/08 13:38:26;;;;;;;26.52;9.35;;;13.80;76.30;;;;;;4905728;29;19912;-80
2021/11/08 13:41:16;;;;;;;27.02;8.45;;;13.80;76.20;;;;;;4904967;29;20040;-81
2021/11/08 13:44:05;;;;;;;31.60;14.32;;;13.80;76.50;;;;;;4901816;29;20203;-81
2021/11/08 13:46:36;;;;;;;24.60;10.23;;;13.90;77.20;;;;;;4899375;29;20049;-80
2021/11/08 13:49:14;;;;;;;24.85;11.23;;;13.90;76.80;;;;;;4903015;29;20125;-79
2021/11/08 13:51:46;;;;;;;27.75;9.90;;;13.90;77.10;;;;;;4901313;29;20040;-80
2021/11/08 13:54:18;;;;;;;24.17;9.75;;;13.90;76.60;;;;;;4900183;29;20060;-80
2021/11/08 13:56:48;;;;;;;20.55;7.45;;;13.80;76.90;;;;;;4900698;29;20061;-80
2021/11/08 13:59:23;;;;;;;27.23;9.70;;;13.80;77.00;;;;;;4899776;29;20028;-80
2021/11/08 14:01:56;;;;;;;37.03;16.50;;;13.80;77.40;;;;;;4900844;29;20032;-80
2021/11/08 14:04:31;;;;;;;;;;;13.80;78.40;;;;;;4901736;29;20032;-80
2021/11/08 14:06:57;;;;;;;46.42;17.92;;;13.70;78.50;;;;;;4931059;29;19916;-81
2021/11/08 14:09:24;;;;;;;31.08;11.40;;;13.70;79.20;;;;;;4900734;29;20064;-79
2021/11/08 14:11:54;;;;;;;33.33;13.43;;;13.70;78.70;;;;;;4899756;29;20036;-80
2021/11/08 14:14:22;;;;;;;27.20;10.57;;;13.70;78.80;;;;;;4900758;29;20064;-80
2021/11/08 14:16:51;;;;;;;32.08;13.07;;;13.70;78.90;;;;;;4899829;29;20072;-79
2021/11/08 14:19:18;;;;;;;28.90;12.13;;;13.70;78.70;;;;;;4899348;29;20029;-81
2021/11/08 14:21:47;;;;;;;30.40;13.48;;;13.60;78.40;;;;;;4899257;29;20032;-79
2021/11/08 14:24:16;;;;;;;27.52;9.65;;;13.60;78.80;;;;;;4901929;29;20068;-80
2021/11/08 14:26:48;;;;;;;20.60;7.20;;;13.60;77.70;;;;;;4900445;29;20041;-81
2021/11/08 14:29:20;;;;;;;28.30;12.20;;;13.60;77.50;;;;;;4900884;29;20036;-81